sensor_id;sensor_type;location;lat;lon;timestamp;pressure;altitude;pressure_sealevel;temperature;humidity
7109;BME280;29079;41.930;25.558;2023-05-24T00:00:12;99325.44;;;13.85;100.00
7109;BME280;29079;41.930;25.558;2023-05-24T00:03:02;99304.25;;;14.33;100.00
7109;BME280;29079;41.930;25.558;2023-05-24T00:05:52;99326.75;;;14.32;100.00
7109;BME280;29079;41.930;25.558;2023-05-24T00:08:40;99318.84;;;14.39;100.00
7109;BME280;29079;41.930;25.558;2023-05-24T00:11:28;99283.09;;;14.30;100.00
7109;BME280;29079;41.930;25.558;2023-05-24T00:14:16;99319.34;;;14.34;100.00
7109;BME280;29079;41.930;25.558;2023-05-24T00:17:04;99317.69;;;14.41;100.00
7109;BME280;29079;41.930;25.558;2023-05-24T00:19:53;99321.88;;;14.27;100.00
7109;BME280;29079;41.930;25.558;2023-05-24T00:22:41;99316.66;;;14.26;100.00
7109;BME280;29079;41.930;25.558;2023-05-24T00:25:28;99310.22;;;14.02;100.00
7109;BME280;29079;41.930;25.558;2023-05-24T00:28:16;99329.53;;;14.14;100.00
7109;BME280;29079;41.930;25.558;2023-05-24T00:31:04;99327.03;;;14.13;100.00
7109;BME280;29079;41.930;25.558;2023-05-24T00:33:53;99307.44;;;14.28;100.00
7109;BME280;29079;41.930;25.558;2023-05-24T00:36:42;99321.53;;;14.22;100.00
7109;BME280;29079;41.930;25.558;2023-05-24T00:39:30;99317.66;;;14.25;100.00
7109;BME280;29079;41.930;25.558;2023-05-24T00:42:18;99324.06;;;14.32;100.00
7109;BME280;29079;41.930;25.558;2023-05-24T00:45:07;99319.97;;;14.03;100.00
7109;BME280;29079;41.930;25.558;2023-05-24T00:47:55;99336.72;;;13.97;100.00
7109;BME280;29079;41.930;25.558;2023-05-24T00:50:42;99328.19;;;14.10;100.00
7109;BME280;29079;41.930;25.558;2023-05-24T00:53:32;99336.44;;;14.33;100.00
7109;BME280;29079;41.930;25.558;2023-05-24T00:56:22;99329.59;;;14.31;100.00
7109;BME280;29079;41.930;25.558;2023-05-24T00:59:09;99326.34;;;14.02;100.00
7109;BME280;29079;41.930;25.558;2023-05-24T01:01:57;99322.34;;;14.15;100.00
7109;BME280;29079;41.930;25.558;2023-05-24T01:04:45;99332.69;;;13.93;100.00
7109;BME280;29079;41.930;25.558;2023-05-24T01:07:40;99336.06;;;14.03;100.00
7109;BME280;29079;41.930;25.558;2023-05-24T01:10:40;99330.38;;;14.06;100.00
7109;BME280;29079;41.930;25.558;2023-05-24T01:13:39;99327.34;;;14.09;100.00
7109;BME280;29079;41.930;25.558;2023-05-24T01:16:40;99325.09;;;14.97;100.00
7109;BME280;29079;41.930;25.558;2023-05-24T01:19:50;99330.09;;;14.59;100.00
7109;BME280;29079;41.930;25.558;2023-05-24T01:23:03;99303.00;;;14.03;100.00
7109;BME280;29079;41.930;25.558;2023-05-24T01:26:19;99325.06;;;14.39;100.00
7109;BME280;29079;41.930;25.558;2023-05-24T01:29:16;99321.16;;;14.09;100.00
7109;BME280;29079;41.930;25.558;2023-05-24T01:32:05;99224.31;;;13.27;100.00
7109;BME280;29079;41.930;25.558;2023-05-24T01:34:53;99323.19;;;14.32;100.00
7109;BME280;29079;41.930;25.558;2023-05-24T01:37:41;99327.53;;;14.24;100.00
7109;BME280;29079;41.930;25.558;2023-05-24T01:40:29;99328.47;;;14.74;100.00
7109;BME280;29079;41.930;25.558;2023-05-24T01:43:22;99325.06;;;14.48;100.00
7109;BME280;29079;41.930;25.558;2023-05-24T01:46:20;99322.31;;;14.06;100.00
7109;BME280;29079;41.930;25.558;2023-05-24T01:49:16;99324.34;;;14.04;100.00
7109;BME280;29079;41.930;25.558;2023-05-24T01:52:11;99326.06;;;13.71;100.00
7109;BME280;29079;41.930;25.558;2023-05-24T01:55:00;99332.97;;;13.82;100.00
7109;BME280;29079;41.930;25.558;2023-05-24T01:57:49;99262.56;;;13.71;100.00
7109;BME280;29079;41.930;25.558;2023-05-24T02:00:38;99312.25;;;14.00;100.00
7109;BME280;29079;41.930;25.558;2023-05-24T02:03:28;99319.44;;;13.91;100.00
7109;BME280;29079;41.930;25.558;2023-05-24T02:06:17;99313.06;;;13.50;100.00
7109;BME280;29079;41.930;25.558;2023-05-24T02:09:05;99331.38;;;14.05;100.00
7109;BME280;29079;41.930;25.558;2023-05-24T02:11:53;99330.13;;;13.83;100.00
7109;BME280;29079;41.930;25.558;2023-05-24T02:14:40;99327.41;;;13.75;100.00
7109;BME280;29079;41.930;25.558;2023-05-24T02:17:28;99336.94;;;13.69;100.00
7109;BME280;29079;41.930;25.558;2023-05-24T02:20:19;99307.09;;;13.64;100.00
7109;BME280;29079;41.930;25.558;2023-05-24T02:23:08;99340.75;;;14.01;100.00
7109;BME280;29079;41.930;25.558;2023-05-24T02:25:55;99343.66;;;13.65;100.00
7109;BME280;29079;41.930;25.558;2023-05-24T02:28:43;99342.63;;;13.66;100.00
7109;BME280;29079;41.930;25.558;2023-05-24T02:31:31;99324.50;;;13.60;100.00
7109;BME280;29079;41.930;25.558;2023-05-24T02:34:19;99344.50;;;13.39;100.00
7109;BME280;29079;41.930;25.558;2023-05-24T02:37:10;99349.34;;;13.70;100.00
7109;BME280;29079;41.930;25.558;2023-05-24T02:40:00;99355.31;;;13.56;100.00
7109;BME280;29079;41.930;25.558;2023-05-24T02:42:48;99356.47;;;13.27;100.00
7109;BME280;29079;41.930;25.558;2023-05-24T02:45:35;99335.56;;;13.31;100.00
7109;BME280;29079;41.930;25.558;2023-05-24T02:48:23;99357.81;;;13.31;100.00
7109;BME280;29079;41.930;25.558;2023-05-24T02:51:11;99332.06;;;13.30;100.00
7109;BME280;29079;41.930;25.558;2023-05-24T02:54:00;99355.84;;;13.33;100.00
7109;BME280;29079;41.930;25.558;2023-05-24T02:56:48;99330.94;;;13.15;100.00
7109;BME280;29079;41.930;25.558;2023-05-24T02:59:36;99354.97;;;13.24;100.00
7109;BME280;29079;41.930;25.558;2023-05-24T03:02:23;99365.28;;;13.19;100.00
7109;BME280;29079;41.930;25.558;2023-05-24T03:05:14;99366.34;;;13.00;100.00
7109;BME280;29079;41.930;25.558;2023-05-24T03:08:02;99363.34;;;13.03;100.00
7109;BME280;29079;41.930;25.558;2023-05-24T03:10:51;99364.47;;;13.01;100.00
7109;BME280;29079;41.930;25.558;2023-05-24T03:13:38;99362.44;;;12.95;100.00
7109;BME280;29079;41.930;25.558;2023-05-24T03:16:26;99356.69;;;13.07;100.00
7109;BME280;29079;41.930;25.558;2023-05-24T03:19:15;99350.50;;;12.89;100.00
7109;BME280;29079;41.930;25.558;2023-05-24T03:22:03;99354.75;;;12.74;100.00
7109;BME280;29079;41.930;25.558;2023-05-24T03:24:51;99351.81;;;12.85;100.00
7109;BME280;29079;41.930;25.558;2023-05-24T03:27:40;99354.47;;;12.85;100.00
7109;BME280;29079;41.930;25.558;2023-05-24T03:30:28;99346.13;;;12.88;100.00
7109;BME280;29079;41.930;25.558;2023-05-24T03:33:16;99355.66;;;12.82;100.00
7109;BME280;29079;41.930;25.558;2023-05-24T03:36:04;99353.72;;;12.93;100.00
7109;BME280;29079;41.930;25.558;2023-05-24T03:38:53;99364.44;;;12.93;100.00
7109;BME280;29079;41.930;25.558;2023-05-24T03:41:43;99368.19;;;12.82;100.00
7109;BME280;29079;41.930;25.558;2023-05-24T03:44:32;99369.25;;;12.89;100.00
7109;BME280;29079;41.930;25.558;2023-05-24T03:47:20;99368.34;;;12.98;100.00
7109;BME280;29079;41.930;25.558;2023-05-24T03:50:09;99372.75;;;13.07;100.00
7109;BME280;29079;41.930;25.558;2023-05-24T03:52:57;99378.59;;;13.29;100.00
7109;BME280;29079;41.930;25.558;2023-05-24T03:55:45;99382.84;;;13.14;100.00
7109;BME280;29079;41.930;25.558;2023-05-24T03:58:32;99384.34;;;13.34;100.00
7109;BME280;29079;41.930;25.558;2023-05-24T04:01:21;99370.03;;;13.52;100.00
7109;BME280;29079;41.930;25.558;2023-05-24T04:04:20;99385.94;;;13.27;100.00
7109;BME280;29079;41.930;25.558;2023-05-24T04:07:08;99375.50;;;13.16;100.00
7109;BME280;29079;41.930;25.558;2023-05-24T04:09:57;99386.06;;;13.70;100.00
7109;BME280;29079;41.930;25.558;2023-05-24T04:12:45;99391.91;;;13.65;100.00
7109;BME280;29079;41.930;25.558;2023-05-24T04:15:33;99393.16;;;13.53;100.00
7109;BME280;29079;41.930;25.558;2023-05-24T04:18:22;99394.28;;;13.76;100.00
7109;BME280;29079;41.930;25.558;2023-05-24T04:21:10;99356.34;;;13.63;100.00
7109;BME280;29079;41.930;25.558;2023-05-24T04:23:58;99371.41;;;13.90;100.00
7109;BME280;29079;41.930;25.558;2023-05-24T04:26:47;99389.25;;;13.73;100.00
7109;BME280;29079;41.930;25.558;2023-05-24T04:29:34;99389.56;;;13.70;100.00
7109;BME280;29079;41.930;25.558;2023-05-24T04:32:22;99388.78;;;13.52;100.00
7109;BME280;29079;41.930;25.558;2023-05-24T04:35:13;99383.81;;;13.57;100.00
7109;BME280;29079;41.930;25.558;2023-05-24T04:38:01;99389.19;;;13.57;100.00
7109;BME280;29079;41.930;25.558;2023-05-24T04:40:48;99395.25;;;13.67;100.00
7109;BME280;29079;41.930;25.558;2023-05-24T04:43:36;99376.50;;;13.67;100.00
7109;BME280;29079;41.930;25.558;2023-05-24T04:46:24;99390.56;;;14.04;100.00
7109;BME280;29079;41.930;25.558;2023-05-24T04:49:12;99318.81;;;13.63;100.00
7109;BME280;29079;41.930;25.558;2023-05-24T04:52:02;99383.72;;;14.09;100.00
7109;BME280;29079;41.930;25.558;2023-05-24T04:54:49;99391.13;;;14.24;100.00
7109;BME280;29079;41.930;25.558;2023-05-24T04:57:38;99388.31;;;14.34;100.00
7109;BME280;29079;41.930;25.558;2023-05-24T05:00:26;99389.81;;;14.28;100.00
7109;BME280;29079;41.930;25.558;2023-05-24T05:03:13;99385.09;;;14.30;100.00
7109;BME280;29079;41.930;25.558;2023-05-24T05:06:01;99370.00;;;14.21;100.00
7109;BME280;29079;41.930;25.558;2023-05-24T05:08:51;99387.16;;;14.53;100.00
7109;BME280;29079;41.930;25.558;2023-05-24T05:11:38;99356.25;;;14.40;100.00
7109;BME280;29079;41.930;25.558;2023-05-24T05:14:26;99387.16;;;14.44;100.00
7109;BME280;29079;41.930;25.558;2023-05-24T05:17:14;99393.50;;;14.43;100.00
7109;BME280;29079;41.930;25.558;2023-05-24T05:20:04;99394.22;;;14.45;100.00
7109;BME280;29079;41.930;25.558;2023-05-24T05:22:52;99399.63;;;14.62;100.00
7109;BME280;29079;41.930;25.558;2023-05-24T05:25:41;99408.00;;;14.59;100.00
7109;BME280;29079;41.930;25.558;2023-05-24T05:28:29;99404.66;;;14.65;100.00
7109;BME280;29079;41.930;25.558;2023-05-24T05:31:17;99400.16;;;14.66;100.00
7109;BME280;29079;41.930;25.558;2023-05-24T05:34:04;99403.34;;;14.69;100.00
7109;BME280;29079;41.930;25.558;2023-05-24T05:36:55;99417.44;;;14.79;100.00
7109;BME280;29079;41.930;25.558;2023-05-24T05:39:42;99410.09;;;15.06;100.00
7109;BME280;29079;41.930;25.558;2023-05-24T05:42:31;99411.75;;;15.15;100.00
7109;BME280;29079;41.930;25.558;2023-05-24T05:45:19;99411.72;;;15.32;100.00
7109;BME280;29079;41.930;25.558;2023-05-24T05:48:07;99413.44;;;15.25;100.00
7109;BME280;29079;41.930;25.558;2023-05-24T05:50:55;99412.72;;;15.47;100.00
7109;BME280;29079;41.930;25.558;2023-05-24T05:53:44;99409.00;;;15.57;100.00
7109;BME280;29079;41.930;25.558;2023-05-24T05:56:32;99418.25;;;15.54;100.00
7109;BME280;29079;41.930;25.558;2023-05-24T05:59:26;99413.19;;;15.59;100.00
7109;BME280;29079;41.930;25.558;2023-05-24T06:02:13;99412.84;;;15.71;100.00
7109;BME280;29079;41.930;25.558;2023-05-24T06:05:01;99420.88;;;15.95;100.00
7109;BME280;29079;41.930;25.558;2023-05-24T06:07:49;99421.94;;;16.17;100.00
7109;BME280;29079;41.930;25.558;2023-05-24T06:10:37;99420.47;;;16.15;100.00
7109;BME280;29079;41.930;25.558;2023-05-24T06:13:24;99428.06;;;16.43;100.00
7109;BME280;29079;41.930;25.558;2023-05-24T06:16:14;99422.44;;;16.52;100.00
7109;BME280;29079;41.930;25.558;2023-05-24T06:19:03;99425.41;;;16.66;99.66
7109;BME280;29079;41.930;25.558;2023-05-24T06:21:52;99437.84;;;16.67;100.00
7109;BME280;29079;41.930;25.558;2023-05-24T06:24:39;99408.69;;;16.70;98.14
7109;BME280;29079;41.930;25.558;2023-05-24T06:27:30;99413.06;;;16.71;95.91
7109;BME280;29079;41.930;25.558;2023-05-24T06:30:17;99431.25;;;17.01;96.68
7109;BME280;29079;41.930;25.558;2023-05-24T06:33:07;99427.00;;;17.07;95.47
7109;BME280;29079;41.930;25.558;2023-05-24T06:35:54;99419.78;;;17.22;95.76
7109;BME280;29079;41.930;25.558;2023-05-24T06:38:43;99418.94;;;17.21;96.06
7109;BME280;29079;41.930;25.558;2023-05-24T06:41:30;99416.44;;;17.35;94.06
7109;BME280;29079;41.930;25.558;2023-05-24T06:44:18;99421.41;;;17.46;93.60
7109;BME280;29079;41.930;25.558;2023-05-24T06:47:10;99413.88;;;17.56;94.30
7109;BME280;29079;41.930;25.558;2023-05-24T06:50:00;99418.34;;;17.64;93.14
7109;BME280;29079;41.930;25.558;2023-05-24T06:52:49;99417.69;;;17.77;94.46
7109;BME280;29079;41.930;25.558;2023-05-24T06:55:37;99418.91;;;17.74;95.24
7109;BME280;29079;41.930;25.558;2023-05-24T06:58:24;99415.88;;;17.92;94.71
7109;BME280;29079;41.930;25.558;2023-05-24T07:01:12;99410.94;;;17.96;93.41
7109;BME280;29079;41.930;25.558;2023-05-24T07:04:00;99400.16;;;18.11;93.76
7109;BME280;29079;41.930;25.558;2023-05-24T07:06:50;99405.16;;;18.14;93.51
7109;BME280;29079;41.930;25.558;2023-05-24T07:09:39;99408.03;;;18.27;90.75
7109;BME280;29079;41.930;25.558;2023-05-24T07:12:27;99404.44;;;18.42;91.54
7109;BME280;29079;41.930;25.558;2023-05-24T07:15:15;99400.34;;;18.31;90.33
7109;BME280;29079;41.930;25.558;2023-05-24T07:18:03;99387.56;;;18.55;90.16
7109;BME280;29079;41.930;25.558;2023-05-24T07:20:51;99400.56;;;18.88;90.03
7109;BME280;29079;41.930;25.558;2023-05-24T07:23:41;99395.59;;;18.70;85.53
7109;BME280;29079;41.930;25.558;2023-05-24T07:26:29;99376.78;;;18.61;86.77
7109;BME280;29079;41.930;25.558;2023-05-24T07:29:17;99385.22;;;18.73;86.96
7109;BME280;29079;41.930;25.558;2023-05-24T07:32:05;99406.25;;;18.93;85.97
7109;BME280;29079;41.930;25.558;2023-05-24T07:34:53;99414.66;;;19.05;87.23
7109;BME280;29079;41.930;25.558;2023-05-24T07:37:41;99412.47;;;19.15;86.64
7109;BME280;29079;41.930;25.558;2023-05-24T07:40:30;99347.03;;;18.76;84.91
7109;BME280;29079;41.930;25.558;2023-05-24T07:43:18;99390.31;;;19.26;84.82
7109;BME280;29079;41.930;25.558;2023-05-24T07:46:05;99409.13;;;19.41;83.21
7109;BME280;29079;41.930;25.558;2023-05-24T07:48:53;99413.72;;;19.41;80.58
7109;BME280;29079;41.930;25.558;2023-05-24T07:51:41;99405.41;;;19.42;81.41
7109;BME280;29079;41.930;25.558;2023-05-24T07:54:29;99409.81;;;19.50;83.64
7109;BME280;29079;41.930;25.558;2023-05-24T07:57:18;99408.41;;;19.54;83.27
7109;BME280;29079;41.930;25.558;2023-05-24T08:00:07;99410.88;;;19.49;82.18
7109;BME280;29079;41.930;25.558;2023-05-24T08:03:00;99412.44;;;19.65;81.86
7109;BME280;29079;41.930;25.558;2023-05-24T08:05:49;99411.19;;;19.67;80.37
7109;BME280;29079;41.930;25.558;2023-05-24T08:08:37;99416.41;;;19.69;80.53
7109;BME280;29079;41.930;25.558;2023-05-24T08:11:25;99408.84;;;19.86;79.59
7109;BME280;29079;41.930;25.558;2023-05-24T08:14:14;99409.91;;;19.92;80.58
7109;BME280;29079;41.930;25.558;2023-05-24T08:17:02;99406.38;;;19.91;80.57
7109;BME280;29079;41.930;25.558;2023-05-24T08:19:50;99408.63;;;19.81;79.04
7109;BME280;29079;41.930;25.558;2023-05-24T08:22:38;99418.03;;;19.92;78.13
7109;BME280;29079;41.930;25.558;2023-05-24T08:25:26;99414.09;;;19.94;79.30
7109;BME280;29079;41.930;25.558;2023-05-24T08:28:13;99421.06;;;20.17;76.98
7109;BME280;29079;41.930;25.558;2023-05-24T08:31:03;99420.44;;;20.15;78.87
7109;BME280;29079;41.930;25.558;2023-05-24T08:33:52;99417.28;;;20.05;79.19
7109;BME280;29079;41.930;25.558;2023-05-24T08:36:40;99422.19;;;20.29;78.04
7109;BME280;29079;41.930;25.558;2023-05-24T08:39:31;99422.59;;;20.33;76.22
7109;BME280;29079;41.930;25.558;2023-05-24T08:42:19;99420.91;;;20.25;77.06
7109;BME280;29079;41.930;25.558;2023-05-24T08:45:10;99397.50;;;20.11;77.14
7109;BME280;29079;41.930;25.558;2023-05-24T08:48:00;99428.47;;;20.37;79.32
7109;BME280;29079;41.930;25.558;2023-05-24T08:50:49;99428.47;;;20.43;75.85
7109;BME280;29079;41.930;25.558;2023-05-24T08:53:37;99422.63;;;20.40;76.70
7109;BME280;29079;41.930;25.558;2023-05-24T08:56:27;99432.25;;;20.42;76.46
7109;BME280;29079;41.930;25.558;2023-05-24T08:59:15;99430.84;;;20.60;77.00
7109;BME280;29079;41.930;25.558;2023-05-24T09:02:03;99429.38;;;20.57;75.42
7109;BME280;29079;41.930;25.558;2023-05-24T09:04:54;99422.97;;;20.72;75.76
7109;BME280;29079;41.930;25.558;2023-05-24T09:07:44;99436.31;;;20.73;74.91
7109;BME280;29079;41.930;25.558;2023-05-24T09:10:32;99425.09;;;20.96;74.11
7109;BME280;29079;41.930;25.558;2023-05-24T09:13:39;99433.41;;;20.88;73.42
7109;BME280;29079;41.930;25.558;2023-05-24T09:16:28;99427.16;;;20.81;74.43
7109;BME280;29079;41.930;25.558;2023-05-24T09:19:15;99441.56;;;20.88;72.36
7109;BME280;29079;41.930;25.558;2023-05-24T09:22:05;99379.31;;;20.46;73.79
7109;BME280;29079;41.930;25.558;2023-05-24T09:24:56;99437.81;;;20.89;69.75
7109;BME280;29079;41.930;25.558;2023-05-24T09:27:49;99429.06;;;20.87;70.50
7109;BME280;29079;41.930;25.558;2023-05-24T09:30:36;99432.00;;;20.99;72.45
7109;BME280;29079;41.930;25.558;2023-05-24T09:33:28;99426.13;;;20.89;73.60
7109;BME280;29079;41.930;25.558;2023-05-24T09:36:16;99419.91;;;21.15;73.81
7109;BME280;29079;41.930;25.558;2023-05-24T09:39:09;99418.44;;;21.32;72.06
7109;BME280;29079;41.930;25.558;2023-05-24T09:41:56;99422.41;;;21.56;70.75
7109;BME280;29079;41.930;25.558;2023-05-24T09:44:44;99421.78;;;21.61;68.83
7109;BME280;29079;41.930;25.558;2023-05-24T09:47:33;99425.53;;;21.47;70.13
7109;BME280;29079;41.930;25.558;2023-05-24T09:50:21;99427.84;;;21.63;70.62
7109;BME280;29079;41.930;25.558;2023-05-24T09:53:09;99416.97;;;21.63;70.01
7109;BME280;29079;41.930;25.558;2023-05-24T09:55:58;99391.06;;;21.67;67.95
7109;BME280;29079;41.930;25.558;2023-05-24T09:58:47;99420.66;;;22.02;67.34
7109;BME280;29079;41.930;25.558;2023-05-24T10:01:35;99403.75;;;21.87;68.43
7109;BME280;29079;41.930;25.558;2023-05-24T10:04:31;99412.75;;;21.87;69.07
7109;BME280;29079;41.930;25.558;2023-05-24T10:07:19;99415.66;;;21.99;69.00
7109;BME280;29079;41.930;25.558;2023-05-24T10:10:09;99414.88;;;21.79;66.93
7109;BME280;29079;41.930;25.558;2023-05-24T10:12:59;99408.81;;;21.77;68.29
7109;BME280;29079;41.930;25.558;2023-05-24T10:15:47;99408.78;;;21.90;68.58
7109;BME280;29079;41.930;25.558;2023-05-24T10:18:35;99422.06;;;22.12;67.24
7109;BME280;29079;41.930;25.558;2023-05-24T10:21:23;99408.47;;;22.25;66.14
7109;BME280;29079;41.930;25.558;2023-05-24T10:24:14;99408.59;;;22.43;64.08
7109;BME280;29079;41.930;25.558;2023-05-24T10:27:09;99388.50;;;22.51;64.36
7109;BME280;29079;41.930;25.558;2023-05-24T10:30:08;99405.88;;;22.43;65.29
7109;BME280;29079;41.930;25.558;2023-05-24T10:33:00;99405.47;;;22.40;67.80
7109;BME280;29079;41.930;25.558;2023-05-24T10:35:50;99405.03;;;22.50;64.59
7109;BME280;29079;41.930;25.558;2023-05-24T10:38:39;99402.97;;;22.38;64.77
7109;BME280;29079;41.930;25.558;2023-05-24T10:41:27;99404.06;;;22.24;64.62
7109;BME280;29079;41.930;25.558;2023-05-24T10:44:17;99376.78;;;21.99;63.57
7109;BME280;29079;41.930;25.558;2023-05-24T10:47:11;99388.94;;;22.41;62.55
7109;BME280;29079;41.930;25.558;2023-05-24T10:50:15;99379.75;;;22.42;63.24
7109;BME280;29079;41.930;25.558;2023-05-24T10:53:10;99381.50;;;22.62;64.36
7109;BME280;29079;41.930;25.558;2023-05-24T10:56:00;99376.50;;;22.59;62.49
7109;BME280;29079;41.930;25.558;2023-05-24T10:58:58;99375.81;;;22.70;62.65
7109;BME280;29079;41.930;25.558;2023-05-24T11:01:54;99365.72;;;22.46;60.00
7109;BME280;29079;41.930;25.558;2023-05-24T11:04:46;99362.25;;;22.64;60.65
7109;BME280;29079;41.930;25.558;2023-05-24T11:07:40;99348.00;;;22.68;59.73
7109;BME280;29079;41.930;25.558;2023-05-24T11:10:31;99368.88;;;22.74;60.62
7109;BME280;29079;41.930;25.558;2023-05-24T11:13:19;99374.22;;;22.88;58.72
7109;BME280;29079;41.930;25.558;2023-05-24T11:16:07;99366.06;;;22.88;62.18
7109;BME280;29079;41.930;25.558;2023-05-24T11:18:55;99348.78;;;22.75;59.19
7109;BME280;29079;41.930;25.558;2023-05-24T11:21:46;99300.41;;;22.52;61.42
7109;BME280;29079;41.930;25.558;2023-05-24T11:24:34;99351.69;;;23.06;60.89
7109;BME280;29079;41.930;25.558;2023-05-24T11:27:22;99352.56;;;23.00;60.80
7109;BME280;29079;41.930;25.558;2023-05-24T11:30:11;99354.75;;;22.91;62.27
7109;BME280;29079;41.930;25.558;2023-05-24T11:32:59;99346.81;;;22.89;63.16
7109;BME280;29079;41.930;25.558;2023-05-24T11:35:49;99344.19;;;23.01;60.28
7109;BME280;29079;41.930;25.558;2023-05-24T11:38:38;99312.69;;;22.87;59.55
7109;BME280;29079;41.930;25.558;2023-05-24T11:41:26;99340.56;;;23.07;60.62
7109;BME280;29079;41.930;25.558;2023-05-24T11:44:17;99335.13;;;23.07;61.66
7109;BME280;29079;41.930;25.558;2023-05-24T11:47:06;99338.06;;;23.06;64.27
7109;BME280;29079;41.930;25.558;2023-05-24T11:49:54;99327.63;;;23.03;60.88
7109;BME280;29079;41.930;25.558;2023-05-24T11:52:41;99329.47;;;22.84;59.97
7109;BME280;29079;41.930;25.558;2023-05-24T11:55:31;99325.59;;;22.98;59.09
7109;BME280;29079;41.930;25.558;2023-05-24T11:58:22;99320.00;;;22.61;59.60
7109;BME280;29079;41.930;25.558;2023-05-24T12:01:22;99313.34;;;22.89;60.14
7109;BME280;29079;41.930;25.558;2023-05-24T12:04:10;99312.25;;;22.90;59.73
7109;BME280;29079;41.930;25.558;2023-05-24T12:06:59;99311.72;;;23.06;66.07
7109;BME280;29079;41.930;25.558;2023-05-24T12:09:46;99302.38;;;22.95;58.37
7109;BME280;29079;41.930;25.558;2023-05-24T12:12:42;99324.44;;;22.87;57.47
7109;BME280;29079;41.930;25.558;2023-05-24T12:15:31;99300.06;;;22.99;58.58
7109;BME280;29079;41.930;25.558;2023-05-24T12:18:23;99321.16;;;23.29;58.69
7109;BME280;29079;41.930;25.558;2023-05-24T12:21:11;99319.88;;;23.32;62.59
7109;BME280;29079;41.930;25.558;2023-05-24T12:24:09;99322.03;;;23.23;60.83
7109;BME280;29079;41.930;25.558;2023-05-24T12:26:59;99262.38;;;22.77;59.45
7109;BME280;29079;41.930;25.558;2023-05-24T12:29:50;99345.59;;;23.10;58.94
7109;BME280;29079;41.930;25.558;2023-05-24T12:32:38;99341.91;;;22.73;60.28
7109;BME280;29079;41.930;25.558;2023-05-24T12:35:26;99338.19;;;22.22;56.90
7109;BME280;29079;41.930;25.558;2023-05-24T12:38:13;99338.84;;;21.72;56.53
7109;BME280;29079;41.930;25.558;2023-05-24T12:41:09;99342.34;;;21.86;60.37
7109;BME280;29079;41.930;25.558;2023-05-24T12:43:59;99342.88;;;22.08;59.27
7109;BME280;29079;41.930;25.558;2023-05-24T12:46:48;99334.69;;;21.63;57.01
7109;BME280;29079;41.930;25.558;2023-05-24T12:49:38;99335.94;;;21.67;56.54
7109;BME280;29079;41.930;25.558;2023-05-24T12:52:26;99342.19;;;21.61;55.76
7109;BME280;29079;41.930;25.558;2023-05-24T12:55:14;99349.31;;;21.55;57.47
7109;BME280;29079;41.930;25.558;2023-05-24T12:58:01;99339.31;;;21.55;59.40
7109;BME280;29079;41.930;25.558;2023-05-24T13:00:51;99331.78;;;21.37;60.77
7109;BME280;29079;41.930;25.558;2023-05-24T13:03:41;99341.41;;;21.33;61.51
7109;BME280;29079;41.930;25.558;2023-05-24T13:06:29;99345.56;;;21.43;61.10
7109;BME280;29079;41.930;25.558;2023-05-24T13:09:16;99344.75;;;21.22;62.62
7109;BME280;29079;41.930;25.558;2023-05-24T13:12:08;99362.09;;;21.28;62.70
7109;BME280;29079;41.930;25.558;2023-05-24T13:14:56;99377.53;;;21.00;61.80
7109;BME280;29079;41.930;25.558;2023-05-24T13:17:44;99394.63;;;21.48;66.90
7109;BME280;29079;41.930;25.558;2023-05-24T13:20:34;99394.44;;;21.56;65.79
7109;BME280;29079;41.930;25.558;2023-05-24T13:23:22;99393.38;;;21.64;65.47
7109;BME280;29079;41.930;25.558;2023-05-24T13:26:09;99398.78;;;21.70;71.29
7109;BME280;29079;41.930;25.558;2023-05-24T13:28:58;99392.06;;;21.80;73.15
7109;BME280;29079;41.930;25.558;2023-05-24T13:31:49;99387.63;;;20.51;83.37
7109;BME280;29079;41.930;25.558;2023-05-24T13:34:37;99377.69;;;20.65;86.85
7109;BME280;29079;41.930;25.558;2023-05-24T13:37:26;99384.94;;;20.45;92.19
7109;BME280;29079;41.930;25.558;2023-05-24T13:40:14;99384.75;;;20.60;88.93
7109;BME280;29079;41.930;25.558;2023-05-24T13:43:01;99385.91;;;19.82;96.33
7109;BME280;29079;41.930;25.558;2023-05-24T13:45:49;99372.41;;;19.60;99.62
7109;BME280;29079;41.930;25.558;2023-05-24T13:48:37;99378.47;;;19.27;100.00
7109;BME280;29079;41.930;25.558;2023-05-24T13:51:25;99370.56;;;19.61;100.00
7109;BME280;29079;41.930;25.558;2023-05-24T13:54:14;99360.56;;;19.96;96.00
7109;BME280;29079;41.930;25.558;2023-05-24T13:57:03;99359.28;;;19.57;100.00
7109;BME280;29079;41.930;25.558;2023-05-24T13:59:51;99345.63;;;20.07;97.65
7109;BME280;29079;41.930;25.558;2023-05-24T14:02:39;99339.13;;;20.70;93.22
7109;BME280;29079;41.930;25.558;2023-05-24T14:05:28;99327.66;;;20.88;93.61
7109;BME280;29079;41.930;25.558;2023-05-24T14:08:16;99316.03;;;20.06;100.00
7109;BME280;29079;41.930;25.558;2023-05-24T14:11:05;99325.41;;;20.10;100.00
7109;BME280;29079;41.930;25.558;2023-05-24T14:13:53;99321.41;;;20.74;93.67
7109;BME280;29079;41.930;25.558;2023-05-24T14:17:01;99322.72;;;19.75;100.00
7109;BME280;29079;41.930;25.558;2023-05-24T14:19:49;99327.22;;;19.54;100.00
7109;BME280;29079;41.930;25.558;2023-05-24T14:22:37;99325.81;;;20.07;100.00
7109;BME280;29079;41.930;25.558;2023-05-24T14:25:24;99320.91;;;20.50;100.00
7109;BME280;29079;41.930;25.558;2023-05-24T14:28:13;99330.06;;;20.43;100.00
7109;BME280;29079;41.930;25.558;2023-05-24T14:31:01;99330.81;;;20.10;100.00
7109;BME280;29079;41.930;25.558;2023-05-24T14:33:51;99328.66;;;20.53;98.68
7109;BME280;29079;41.930;25.558;2023-05-24T14:36:39;99323.69;;;20.70;95.84
7109;BME280;29079;41.930;25.558;2023-05-24T14:39:27;99325.78;;;21.09;93.07
7109;BME280;29079;41.930;25.558;2023-05-24T14:42:15;99319.28;;;21.23;93.18
7109;BME280;29079;41.930;25.558;2023-05-24T14:45:05;99322.16;;;21.42;88.48
7109;BME280;29079;41.930;25.558;2023-05-24T14:47:53;99293.81;;;21.24;87.67
7109;BME280;29079;41.930;25.558;2023-05-24T14:50:41;99331.22;;;21.02;87.50